Terminal Aerodrome Forecast
Issued by NWS

Home | Current Version | Previous Version | Text Only | Print | Product List | Glossary On
Versions: 1 2 3 4 5 6 7 8 9 10 11 12 13 14 15 16 17 18 19 20 21 22 23 24 25 26 27 28 29 30
000
FTUS46 KPDT 212300
TAFYKM
TAF
KYKM 212325Z 2200/2224 27012G20KT P6SM SCT060 SCT100
     FM220200 28008KT P6SM BKN080
     FM220600 28004KT 5SM BR FEW020 BKN080
     FM221500 VRB05KT P6SM BKN120=

USA.gov is the U.S. government's official web portal to all federal, state and local government web resources and services.